sensor_id;sensor_type;location;lat;lon;timestamp;pressure;altitude;pressure_sealevel;temperature;humidity
5679;BME280;2862;52.560;13.566;2023-03-11T00:04:37;97955.03;;;1.50;100.00
5679;BME280;2862;52.560;13.566;2023-03-11T00:14:40;98009.75;;;1.46;100.00
5679;BME280;2862;52.560;13.566;2023-03-11T00:24:44;98038.59;;;1.38;100.00
5679;BME280;2862;52.560;13.566;2023-03-11T00:34:47;98069.31;;;1.28;100.00
5679;BME280;2862;52.560;13.566;2023-03-11T00:44:53;98100.41;;;1.13;100.00
5679;BME280;2862;52.560;13.566;2023-03-11T00:54:57;98107.88;;;1.08;100.00
5679;BME280;2862;52.560;13.566;2023-03-11T01:05:02;98124.63;;;1.07;100.00
5679;BME280;2862;52.560;13.566;2023-03-11T01:15:07;98153.19;;;1.12;100.00
5679;BME280;2862;52.560;13.566;2023-03-11T01:25:14;98184.31;;;1.06;100.00
5679;BME280;2862;52.560;13.566;2023-03-11T01:35:19;98221.81;;;0.99;100.00
5679;BME280;2862;52.560;13.566;2023-03-11T01:45:38;98236.19;;;0.95;100.00
5679;BME280;2862;52.560;13.566;2023-03-11T01:55:44;98270.31;;;0.85;100.00
5679;BME280;2862;52.560;13.566;2023-03-11T02:05:50;98299.50;;;0.82;100.00
5679;BME280;2862;52.560;13.566;2023-03-11T02:15:54;98328.66;;;0.79;100.00
5679;BME280;2862;52.560;13.566;2023-03-11T02:26:03;98362.25;;;0.87;100.00
5679;BME280;2862;52.560;13.566;2023-03-11T02:36:30;98412.25;;;0.87;100.00
5679;BME280;2862;52.560;13.566;2023-03-11T02:46:35;98452.75;;;0.84;100.00
5679;BME280;2862;52.560;13.566;2023-03-11T02:56:40;98501.78;;;0.85;100.00
5679;BME280;2862;52.560;13.566;2023-03-11T03:06:43;98533.34;;;0.85;100.00
5679;BME280;2862;52.560;13.566;2023-03-11T03:16:50;98561.44;;;0.96;100.00
5679;BME280;2862;52.560;13.566;2023-03-11T03:26:54;98582.13;;;0.89;100.00
5679;BME280;2862;52.560;13.566;2023-03-11T03:36:58;98634.41;;;0.94;100.00
5679;BME280;2862;52.560;13.566;2023-03-11T03:47:01;98673.03;;;0.93;100.00
5679;BME280;2862;52.560;13.566;2023-03-11T03:57:06;98714.41;;;1.02;100.00
5679;BME280;2862;52.560;13.566;2023-03-11T04:07:17;98744.94;;;1.05;100.00
5679;BME280;2862;52.560;13.566;2023-03-11T04:17:24;98781.19;;;1.13;100.00
5679;BME280;2862;52.560;13.566;2023-03-11T04:27:29;98802.56;;;1.08;100.00
5679;BME280;2862;52.560;13.566;2023-03-11T04:37:35;98834.09;;;1.21;100.00
5679;BME280;2862;52.560;13.566;2023-03-11T04:47:38;98855.38;;;1.18;100.00
5679;BME280;2862;52.560;13.566;2023-03-11T04:57:42;98884.53;;;1.15;100.00
5679;BME280;2862;52.560;13.566;2023-03-11T05:07:48;98910.13;;;1.37;100.00
5679;BME280;2862;52.560;13.566;2023-03-11T05:17:52;98945.72;;;1.18;100.00
5679;BME280;2862;52.560;13.566;2023-03-11T05:27:56;98969.63;;;1.15;100.00
5679;BME280;2862;52.560;13.566;2023-03-11T05:38:00;98996.56;;;1.19;100.00
5679;BME280;2862;52.560;13.566;2023-03-11T05:48:04;99030.91;;;1.17;100.00
5679;BME280;2862;52.560;13.566;2023-03-11T05:58:11;99056.97;;;1.33;100.00
5679;BME280;2862;52.560;13.566;2023-03-11T06:08:15;99082.03;;;1.26;100.00
5679;BME280;2862;52.560;13.566;2023-03-11T06:18:20;99108.63;;;1.47;100.00
5679;BME280;2862;52.560;13.566;2023-03-11T06:28:23;99124.19;;;1.63;100.00
5679;BME280;2862;52.560;13.566;2023-03-11T06:38:28;99149.75;;;1.73;100.00
5679;BME280;2862;52.560;13.566;2023-03-11T06:48:31;99164.25;;;1.55;100.00
5679;BME280;2862;52.560;13.566;2023-03-11T06:58:38;99196.69;;;1.43;100.00
5679;BME280;2862;52.560;13.566;2023-03-11T07:08:45;99231.59;;;1.83;100.00
5679;BME280;2862;52.560;13.566;2023-03-11T07:18:51;99243.66;;;1.62;100.00
5679;BME280;2862;52.560;13.566;2023-03-11T07:28:55;99274.00;;;1.54;100.00
5679;BME280;2862;52.560;13.566;2023-03-11T07:39:02;99316.25;;;1.40;100.00
5679;BME280;2862;52.560;13.566;2023-03-11T07:49:06;99325.41;;;2.35;100.00
5679;BME280;2862;52.560;13.566;2023-03-11T07:59:11;99341.69;;;6.28;91.67
5679;BME280;2862;52.560;13.566;2023-03-11T08:09:14;99372.81;;;5.53;84.05
5679;BME280;2862;52.560;13.566;2023-03-11T08:19:18;99401.72;;;4.92;86.03
5679;BME280;2862;52.560;13.566;2023-03-11T08:29:22;99421.41;;;5.75;83.84
5679;BME280;2862;52.560;13.566;2023-03-11T08:39:26;99449.09;;;6.24;82.07
5679;BME280;2862;52.560;13.566;2023-03-11T08:49:29;99467.56;;;6.25;80.34
5679;BME280;2862;52.560;13.566;2023-03-11T08:59:33;99486.56;;;5.56;82.46
5679;BME280;2862;52.560;13.566;2023-03-11T09:09:36;99508.41;;;4.83;81.54
5679;BME280;2862;52.560;13.566;2023-03-11T09:19:41;99524.97;;;4.40;87.98
5679;BME280;2862;52.560;13.566;2023-03-11T09:29:44;99534.03;;;4.60;82.16
5679;BME280;2862;52.560;13.566;2023-03-11T09:39:48;99553.13;;;4.52;82.57
5679;BME280;2862;52.560;13.566;2023-03-11T09:50:02;99570.97;;;4.15;86.26
5679;BME280;2862;52.560;13.566;2023-03-11T10:00:12;99587.19;;;4.11;86.03
5679;BME280;2862;52.560;13.566;2023-03-11T10:10:18;99595.03;;;4.23;87.72
5679;BME280;2862;52.560;13.566;2023-03-11T10:20:26;99615.88;;;4.28;87.11
5679;BME280;2862;52.560;13.566;2023-03-11T10:30:34;99632.50;;;4.76;84.59
5679;BME280;2862;52.560;13.566;2023-03-11T10:40:43;99643.03;;;4.54;82.76
5679;BME280;2862;52.560;13.566;2023-03-11T10:50:53;99662.56;;;4.05;84.43
5679;BME280;2862;52.560;13.566;2023-03-11T11:01:04;99670.59;;;3.80;89.16
5679;BME280;2862;52.560;13.566;2023-03-11T11:11:20;99670.28;;;4.08;87.35
5679;BME280;2862;52.560;13.566;2023-03-11T11:21:30;99684.69;;;3.67;89.40
5679;BME280;2862;52.560;13.566;2023-03-11T11:31:35;99684.88;;;4.84;84.35
5679;BME280;2862;52.560;13.566;2023-03-11T11:41:41;99695.97;;;5.00;80.30
5679;BME280;2862;52.560;13.566;2023-03-11T11:51:47;99698.06;;;4.73;nan
5679;BME280;2862;52.560;13.566;2023-03-11T12:01:59;99699.38;;;4.08;82.78
5679;BME280;2862;52.560;13.566;2023-03-11T12:12:13;99702.50;;;4.61;80.55
5679;BME280;2862;52.560;13.566;2023-03-11T12:33:13;99721.53;;;4.66;80.01
5679;BME280;2862;52.560;13.566;2023-03-11T12:43:55;99728.44;;;4.80;78.68
5679;BME280;2862;52.560;13.566;2023-03-11T12:53:52;99755.06;;;4.31;81.78
5679;BME280;2862;52.560;13.566;2023-03-11T13:04:01;99757.84;;;4.16;80.74
5679;BME280;2862;52.560;13.566;2023-03-11T13:14:15;99765.91;;;4.39;77.84
5679;BME280;2862;52.560;13.566;2023-03-11T13:24:40;99771.91;;;4.53;78.58
5679;BME280;2862;52.560;13.566;2023-03-11T13:34:57;99781.91;;;4.61;78.15
5679;BME280;2862;52.560;13.566;2023-03-11T13:45:06;99798.91;;;4.94;74.60
5679;BME280;2862;52.560;13.566;2023-03-11T13:55:18;99811.53;;;4.90;73.10
5679;BME280;2862;52.560;13.566;2023-03-11T14:05:23;99832.16;;;4.74;70.08
5679;BME280;2862;52.560;13.566;2023-03-11T14:15:38;99831.19;;;4.14;74.83
5679;BME280;2862;52.560;13.566;2023-03-11T14:25:45;99841.97;;;4.11;71.49
5679;BME280;2862;52.560;13.566;2023-03-11T14:35:52;99852.34;;;4.14;73.36
5679;BME280;2862;52.560;13.566;2023-03-11T14:45:57;99859.72;;;4.35;70.68
5679;BME280;2862;52.560;13.566;2023-03-11T14:56:04;99875.00;;;3.93;69.86
5679;BME280;2862;52.560;13.566;2023-03-11T15:06:11;99877.84;;;3.52;70.34
5679;BME280;2862;52.560;13.566;2023-03-11T15:16:24;99881.22;;;3.54;70.85
5679;BME280;2862;52.560;13.566;2023-03-11T15:26:32;99884.94;;;3.51;70.78
5679;BME280;2862;52.560;13.566;2023-03-11T15:36:38;99896.06;;;3.82;70.44
5679;BME280;2862;52.560;13.566;2023-03-11T15:46:45;99890.22;;;3.38;69.35
5679;BME280;2862;52.560;13.566;2023-03-11T15:56:50;99911.94;;;3.02;68.76
5679;BME280;2862;52.560;13.566;2023-03-11T16:06:53;99912.56;;;2.93;70.93
5679;BME280;2862;52.560;13.566;2023-03-11T16:17:09;99929.53;;;2.89;70.91
5679;BME280;2862;52.560;13.566;2023-03-11T16:27:16;99947.75;;;2.79;72.22
5679;BME280;2862;52.560;13.566;2023-03-11T16:37:20;99964.81;;;2.74;70.82
5679;BME280;2862;52.560;13.566;2023-03-11T16:47:23;99984.28;;;2.44;71.65
5679;BME280;2862;52.560;13.566;2023-03-11T16:57:28;99984.34;;;2.28;73.03
5679;BME280;2862;52.560;13.566;2023-03-11T17:07:31;99994.44;;;2.22;77.01
5679;BME280;2862;52.560;13.566;2023-03-11T17:17:35;100002.34;;;2.07;75.57
5679;BME280;2862;52.560;13.566;2023-03-11T17:27:40;100011.63;;;1.99;77.48
5679;BME280;2862;52.560;13.566;2023-03-11T17:37:45;100027.50;;;1.83;77.76
5679;BME280;2862;52.560;13.566;2023-03-11T17:47:47;100029.63;;;1.76;78.34
5679;BME280;2862;52.560;13.566;2023-03-11T17:57:52;100036.47;;;1.65;79.27
5679;BME280;2862;52.560;13.566;2023-03-11T18:07:55;100046.34;;;1.61;80.35
5679;BME280;2862;52.560;13.566;2023-03-11T18:17:59;100043.19;;;1.54;81.69
5679;BME280;2862;52.560;13.566;2023-03-11T18:28:02;100058.00;;;1.57;82.11
5679;BME280;2862;52.560;13.566;2023-03-11T18:38:07;100054.84;;;1.50;83.68
5679;BME280;2862;52.560;13.566;2023-03-11T18:48:12;100054.66;;;1.53;83.32
5679;BME280;2862;52.560;13.566;2023-03-11T18:58:17;100062.06;;;1.47;83.91
5679;BME280;2862;52.560;13.566;2023-03-11T19:08:19;100064.91;;;1.44;84.32
5679;BME280;2862;52.560;13.566;2023-03-11T19:18:24;100064.22;;;1.40;84.62
5679;BME280;2862;52.560;13.566;2023-03-11T19:28:26;100074.16;;;1.35;84.85
5679;BME280;2862;52.560;13.566;2023-03-11T19:38:31;100069.13;;;1.30;85.69
5679;BME280;2862;52.560;13.566;2023-03-11T19:48:34;100076.19;;;1.30;85.70
5679;BME280;2862;52.560;13.566;2023-03-11T19:58:40;100082.63;;;1.24;86.58
5679;BME280;2862;52.560;13.566;2023-03-11T20:08:44;100078.31;;;1.23;86.52
5679;BME280;2862;52.560;13.566;2023-03-11T20:18:49;100076.78;;;1.19;86.88
5679;BME280;2862;52.560;13.566;2023-03-11T20:28:56;100084.59;;;1.21;86.09
5679;BME280;2862;52.560;13.566;2023-03-11T20:39:01;100092.81;;;1.15;86.27
5679;BME280;2862;52.560;13.566;2023-03-11T20:49:04;100098.63;;;1.21;85.86
5679;BME280;2862;52.560;13.566;2023-03-11T20:59:12;100092.56;;;1.19;85.77
5679;BME280;2862;52.560;13.566;2023-03-11T21:09:18;100089.19;;;1.17;85.09
5679;BME280;2862;52.560;13.566;2023-03-11T21:19:22;100086.63;;;1.16;84.42
5679;BME280;2862;52.560;13.566;2023-03-11T21:29:28;100087.72;;;1.12;84.24
5679;BME280;2862;52.560;13.566;2023-03-11T21:39:33;100077.72;;;1.34;83.87
5679;BME280;2862;52.560;13.566;2023-03-11T21:49:38;100069.13;;;1.15;83.85
5679;BME280;2862;52.560;13.566;2023-03-11T21:59:44;100067.75;;;1.08;83.86
5679;BME280;2862;52.560;13.566;2023-03-11T22:09:49;100081.63;;;1.11;83.71
5679;BME280;2862;52.560;13.566;2023-03-11T22:19:54;100073.97;;;1.06;83.93
5679;BME280;2862;52.560;13.566;2023-03-11T22:29:57;100065.31;;;1.04;83.91
5679;BME280;2862;52.560;13.566;2023-03-11T22:40:01;100077.78;;;1.01;83.76
5679;BME280;2862;52.560;13.566;2023-03-11T22:50:09;100080.31;;;1.02;83.40
5679;BME280;2862;52.560;13.566;2023-03-11T23:00:25;100085.06;;;0.96;82.91
5679;BME280;2862;52.560;13.566;2023-03-11T23:10:29;100074.72;;;0.93;83.86
5679;BME280;2862;52.560;13.566;2023-03-11T23:20:51;100080.06;;;0.91;82.01
5679;BME280;2862;52.560;13.566;2023-03-11T23:30:54;100067.31;;;0.84;82.53
5679;BME280;2862;52.560;13.566;2023-03-11T23:40:58;100089.22;;;0.84;83.10
5679;BME280;2862;52.560;13.566;2023-03-11T23:51:01;100091.25;;;0.79;83.56
